Time;durP1;ratioP1;P1;durP2;ratioP2;P2;SDS_P1;SDS_P2;PMS_P1;PMS_P2;Temp;Humidity;BMP_temperature;BMP_pressure;BME280_temperature;BME280_humidity;BME280_pressure;Samples;Min_cycle;Max_cycle;Signal;HPM_P1;HPM_P2
2022/05/26 00:01:08;;;;;;;5.40;0.80;;;13.50;99.90;;;;;;5056253;28;20984;-86
2022/05/26 00:03:38;;;;;;;1.00;0.87;;;13.50;99.90;;;;;;5056365;28;20516;-85
2022/05/26 00:06:07;;;;;;;2.20;0.97;;;13.50;99.90;;;;;;5056196;28;20492;-83
2022/05/26 00:08:34;;;;;;;1.47;0.70;;;;;;;;;;5056447;28;20475;-84
2022/05/26 00:11:01;;;;;;;1.30;1.00;;;13.60;99.90;;;;;;5054990;28;20454;-84
2022/05/26 00:13:29;;;;;;;0.93;0.87;;;13.60;99.90;;;;;;5056285;28;20486;-84
2022/05/26 00:15:56;;;;;;;0.77;0.70;;;;;;;;;;5056304;28;20942;-84
2022/05/26 00:18:24;;;;;;;1.00;0.80;;;;;;;;;;5055992;28;20804;-84
2022/05/26 00:20:51;;;;;;;0.67;0.67;;;;;;;;;;5055617;28;20442;-85
2022/05/26 00:23:18;;;;;;;1.10;0.60;;;;;;;;;;5055950;28;20438;-91
2022/05/26 00:25:45;;;;;;;1.07;0.70;;;;;;;;;;5054882;28;20459;-89
2022/05/26 00:28:12;;;;;;;1.00;0.73;;;;;;;;;;5056021;28;20450;-89
2022/05/26 00:30:41;;;;;;;7.10;1.07;;;;;;;;;;5055780;28;20450;-85
2022/05/26 00:33:09;;;;;;;1.20;0.70;;;13.70;99.90;;;;;;5055678;28;20485;-84
2022/05/26 00:35:36;;;;;;;2.63;0.97;;;;;;;;;;5053207;28;20481;-88
2022/05/26 00:38:04;;;;;;;2.40;1.10;;;;;;;;;;5055884;28;20903;-84
2022/05/26 00:40:31;;;;;;;2.20;0.70;;;;;;;;;;5054606;28;20458;-85
2022/05/26 00:42:59;;;;;;;4.03;0.80;;;;;;;;;;5055690;28;20517;-90
2022/05/26 00:45:34;;;;;;;1.40;0.70;;;13.70;99.90;;;;;;5055264;28;20438;-83
2022/05/26 00:48:02;;;;;;;1.70;0.70;;;13.70;99.90;;;;;;5055637;28;20934;-87
2022/05/26 00:50:32;;;;;;;2.33;1.37;;;13.60;99.90;;;;;;5055534;28;20446;-87
2022/05/26 00:53:04;;;;;;;0.80;0.70;;;13.60;99.90;;;;;;5055505;28;20457;-85
2022/05/26 00:55:35;;;;;;;2.50;1.07;;;13.60;99.90;;;;;;5054248;28;20453;-91
2022/05/26 00:58:07;;;;;;;0.90;0.80;;;13.60;99.90;;;;;;5055335;28;20459;-83
2022/05/26 01:00:37;;;;;;;1.60;0.70;;;13.40;99.90;;;;;;5055342;28;20454;-85
2022/05/26 01:03:14;;;;;;;1.20;0.90;;;13.40;99.90;;;;;;5055430;28;20461;-89
2022/05/26 01:05:46;;;;;;;1.50;0.90;;;13.40;99.90;;;;;;5055703;28;20438;-84
2022/05/26 01:08:19;;;;;;;2.50;1.20;;;13.50;99.90;;;;;;5055186;28;20453;-84
2022/05/26 01:10:46;;;;;;;1.20;0.77;;;;;;;;;;5054081;28;20454;-84
2022/05/26 01:13:16;;;;;;;1.40;0.77;;;13.40;99.90;;;;;;5055087;28;20494;-84
2022/05/26 01:15:50;;;;;;;2.30;0.77;;;13.40;99.90;;;;;;5055118;28;20442;-85
2022/05/26 01:18:26;;;;;;;3.07;0.90;;;13.40;99.90;;;;;;5055444;28;20461;-85
2022/05/26 01:21:00;;;;;;;3.50;0.80;;;13.30;99.90;;;;;;5054403;28;20473;-85
2022/05/26 01:24:09;;;;;;;0.70;0.60;;;13.20;99.90;;;;;;5054861;28;20454;-90
2022/05/26 01:27:14;;;;;;;1.43;0.87;;;13.20;99.90;;;;;;5053876;28;20458;-85
2022/05/26 01:30:05;;;;;;;1.30;1.00;;;13.10;99.90;;;;;;5054863;28;20447;-85
2022/05/26 01:32:45;;;;;;;3.77;0.90;;;13.10;99.90;;;;;;5054785;28;20447;-87
2022/05/26 01:35:19;;;;;;;0.70;0.57;;;13.00;99.90;;;;;;5053234;28;20547;-86
2022/05/26 01:37:59;;;;;;;3.80;1.10;;;13.00;99.90;;;;;;5054685;28;20567;-84
2022/05/26 01:40:31;;;;;;;0.83;0.80;;;12.90;99.90;;;;;;5053643;28;20455;-86
2022/05/26 01:43:05;;;;;;;1.60;0.87;;;12.80;99.90;;;;;;5055152;28;20458;-84
2022/05/26 01:45:39;;;;;;;1.50;0.57;;;13.50;99.90;;;;;;5055308;28;20449;-85
2022/05/26 01:48:14;;;;;;;4.03;1.10;;;12.70;99.90;;;;;;5054133;28;20942;-85
2022/05/26 01:50:45;;;;;;;1.20;0.67;;;12.80;99.90;;;;;;5054204;28;20438;-83
2022/05/26 01:53:23;;;;;;;3.40;0.80;;;12.70;99.90;;;;;;5054244;28;20451;-84
2022/05/26 01:55:56;;;;;;;2.90;0.90;;;12.60;99.90;;;;;;5052726;28;20449;-85
2022/05/26 01:58:31;;;;;;;1.00;0.73;;;12.60;99.90;;;;;;5054154;28;20453;-84
2022/05/26 02:01:01;;;;;;;2.30;0.93;;;12.60;99.90;;;;;;5054346;28;20457;-87
2022/05/26 02:03:33;;;;;;;1.17;0.80;;;12.60;99.90;;;;;;5053831;28;20459;-85
2022/05/26 02:06:09;;;;;;;1.00;0.90;;;12.50;99.90;;;;;;5054071;28;20457;-85
2022/05/26 02:08:41;;;;;;;1.10;0.80;;;12.50;99.90;;;;;;5054049;28;20473;-85
2022/05/26 02:11:14;;;;;;;1.10;1.00;;;12.40;99.90;;;;;;5052425;28;20443;-84
2022/05/26 02:13:45;;;;;;;3.03;0.83;;;12.30;99.90;;;;;;5053883;28;20504;-84
2022/05/26 02:16:18;;;;;;;1.00;0.67;;;12.40;99.90;;;;;;5053802;28;20453;-84
2022/05/26 02:18:54;;;;;;;1.00;0.80;;;12.30;99.90;;;;;;5053431;28;20442;-87
2022/05/26 02:21:29;;;;;;;1.93;0.90;;;12.30;99.90;;;;;;5052772;28;20446;-84
2022/05/26 02:24:03;;;;;;;1.20;0.60;;;12.30;99.90;;;;;;5053565;28;20457;-90
2022/05/26 02:26:32;;;;;;;2.20;0.60;;;12.30;99.90;;;;;;5052450;28;20537;-89
2022/05/26 02:31:44;;;;;;;0.87;0.83;;;12.20;99.90;;;;;;5053523;28;20496;-85
2022/05/26 02:34:14;;;;;;;1.50;0.97;;;12.20;99.90;;;;;;5053448;28;20478;-90
2022/05/26 02:36:42;;;;;;;4.80;1.00;;;12.20;99.90;;;;;;5053574;28;20841;-87
2022/05/26 02:39:10;;;;;;;0.70;0.60;;;;;;;;;;5053414;28;20477;-88
2022/05/26 02:41:37;;;;;;;1.07;0.63;;;;;;;;;;5051905;28;20442;-84
2022/05/26 02:44:05;;;;;;;5.13;0.70;;;12.30;99.90;;;;;;5053453;28;20827;-84
2022/05/26 02:46:50;;;;;;;2.00;0.70;;;12.40;99.90;;;;;;5053013;28;20977;-84
2022/05/26 02:49:31;;;;;;;0.70;0.70;;;12.40;99.90;;;;;;5050659;28;20450;-84
2022/05/26 02:52:05;;;;;;;3.00;0.80;;;12.40;99.90;;;;;;5054381;28;20794;-84
2022/05/26 02:54:42;;;;;;;1.53;0.90;;;12.50;99.90;;;;;;5053260;28;20493;-85
2022/05/26 02:57:15;;;;;;;0.90;0.77;;;12.50;99.90;;;;;;5051919;28;20445;-85
2022/05/26 02:59:50;;;;;;;0.87;0.63;;;12.50;99.90;;;;;;5053237;28;20798;-86
2022/05/26 03:02:22;;;;;;;1.23;0.70;;;12.40;99.90;;;;;;5053184;28;20458;-84
2022/05/26 03:04:55;;;;;;;0.80;0.80;;;12.40;99.90;;;;;;5053110;28;20450;-85
2022/05/26 03:07:28;;;;;;;1.17;0.60;;;12.30;99.90;;;;;;5053027;28;20447;-84
2022/05/26 03:09:55;;;;;;;1.73;0.90;;;;;;;;;;5053072;28;20818;-85
2022/05/26 03:12:25;;;;;;;2.20;0.70;;;12.30;99.90;;;;;;5051906;28;20536;-93
2022/05/26 03:14:52;;;;;;;1.27;0.80;;;;;;;;;;5053170;28;20494;-91
2022/05/26 03:17:19;;;;;;;0.80;0.73;;;;;;;;;;5050958;28;20804;-91
2022/05/26 03:19:46;;;;;;;1.63;0.90;;;;;;;;;;5053188;28;20477;-87
2022/05/26 03:22:14;;;;;;;1.00;0.63;;;12.10;99.90;;;;;;5053301;28;20450;-90
2022/05/26 03:24:42;;;;;;;3.80;0.80;;;;;;;;;;5052710;28;20961;-86
2022/05/26 03:27:09;;;;;;;0.83;0.80;;;;;;;;;;5051779;28;20450;-84
2022/05/26 03:29:36;;;;;;;1.87;0.70;;;;;;;;;;5053055;28;20451;-84
2022/05/26 03:32:05;;;;;;;0.80;0.40;;;12.30;99.90;;;;;;5052946;28;20454;-88
2022/05/26 03:42:50;;;;;;;1.40;0.70;;;11.90;99.90;;;;;;5056738;28;20417;-84
2022/05/26 03:45:18;;;;;;;1.77;0.93;;;;;;;;;;5056736;28;20458;-94
2022/05/26 03:47:45;;;;;;;1.53;0.90;;;;;;;;;;5057118;28;20461;-92
2022/05/26 03:50:12;;;;;;;1.43;0.67;;;;;;;;;;5065329;28;20457;-90
2022/05/26 03:52:40;;;;;;;0.70;0.70;;;11.70;99.90;;;;;;5056618;28;20489;-84
2022/05/26 03:55:08;;;;;;;0.70;0.70;;;11.50;99.90;;;;;;5055817;28;20489;-89
2022/05/26 03:57:35;;;;;;;1.00;0.70;;;;;;;;;;5056503;28;20442;-86
2022/05/26 04:00:03;;;;;;;4.63;0.80;;;;;;;;;;5056546;28;20458;-84
2022/05/26 04:02:30;;;;;;;0.93;0.80;;;;;;;;;;5056407;28;20447;-90
2022/05/26 04:04:57;;;;;;;0.70;0.70;;;;;;;;;;5056666;28;20450;-84
2022/05/26 04:07:24;;;;;;;1.30;0.87;;;;;;;;;;5056392;28;20458;-85
2022/05/26 04:09:52;;;;;;;0.80;0.70;;;11.80;99.90;;;;;;5056092;28;20443;-84
2022/05/26 04:12:19;;;;;;;1.90;0.80;;;;;;;;;;5054945;28;20481;-85
2022/05/26 04:14:46;;;;;;;0.50;0.50;;;;;;;;;;5056116;28;20501;-85
2022/05/26 04:17:13;;;;;;;1.23;0.83;;;;;;;;;;5056331;28;20447;-90
2022/05/26 04:19:41;;;;;;;1.47;0.80;;;;;;;;;;5056139;28;20449;-84
2022/05/26 04:22:18;;;;;;;4.70;0.70;;;;;;;;;;5056098;28;20857;-84
2022/05/26 04:24:47;;;;;;;0.70;0.70;;;12.10;99.90;;;;;;5055884;28;20450;-84
2022/05/26 04:27:16;;;;;;;3.47;0.90;;;12.20;99.90;;;;;;5054863;28;20457;-85
2022/05/26 04:29:43;;;;;;;0.70;0.70;;;;;;;;;;5055807;28;20454;-84
2022/05/26 04:32:10;;;;;;;1.13;0.70;;;;;;;;;;5055891;28;20442;-84
2022/05/26 04:34:38;;;;;;;0.70;0.60;;;12.40;99.90;;;;;;5055788;28;20486;-85
2022/05/26 04:37:05;;;;;;;2.20;0.97;;;;;;;;;;5055695;28;20457;-84
2022/05/26 04:39:32;;;;;;;2.17;0.90;;;;;;;;;;5055591;28;20450;-84
2022/05/26 04:42:00;;;;;;;1.17;0.73;;;;;;;;;;5054509;28;20450;-84
2022/05/26 04:44:31;;;;;;;0.97;0.87;;;12.50;99.90;;;;;;5055266;28;20454;-85
2022/05/26 04:46:58;;;;;;;1.30;0.90;;;;;;;;;;5055659;28;20919;-84
2022/05/26 04:49:25;;;;;;;1.30;0.90;;;;;;;;;;5055313;28;20443;-84
2022/05/26 04:51:53;;;;;;;1.10;1.00;;;;;;;;;;5055328;28;20801;-85
2022/05/26 04:54:20;;;;;;;1.33;1.10;;;;;;;;;;5055333;28;20512;-91
2022/05/26 04:56:47;;;;;;;2.47;0.90;;;;;;;;;;5054469;28;20455;-85
2022/05/26 04:59:14;;;;;;;0.70;0.60;;;;;;;;;;5055321;28;20446;-83
2022/05/26 05:01:43;;;;;;;0.70;0.53;;;13.00;99.90;;;;;;5055268;28;20466;-90
2022/05/26 05:04:10;;;;;;;0.90;0.80;;;;;;;;;;5055093;28;20443;-84
2022/05/26 05:06:37;;;;;;;1.57;0.90;;;;;;;;;;5055986;28;20474;-87
2022/05/26 05:09:04;;;;;;;0.77;0.77;;;;;;;;;;5055190;28;20446;-85
2022/05/26 05:11:31;;;;;;;3.47;1.17;;;;;;;;;;5053782;28;20483;-85
2022/05/26 05:14:02;;;;;;;0.93;0.83;;;13.30;99.90;;;;;;5055171;28;20462;-86
2022/05/26 05:16:31;;;;;;;1.10;1.00;;;13.40;99.90;;;;;;5054769;28;20985;-91
2022/05/26 05:18:59;;;;;;;3.33;1.17;;;13.50;99.90;;;;;;5054891;28;20443;-88
2022/05/26 05:21:30;;;;;;;2.00;0.80;;;13.60;99.90;;;;;;5055695;28;20451;-88
2022/05/26 05:24:00;;;;;;;1.00;0.70;;;13.70;99.90;;;;;;5054995;28;20461;-85
2022/05/26 05:26:34;;;;;;;0.87;0.70;;;13.80;99.90;;;;;;5054102;28;20525;-91
2022/05/26 05:29:05;;;;;;;2.70;0.87;;;13.90;99.90;;;;;;5054515;28;20442;-88
2022/05/26 05:31:36;;;;;;;2.20;0.67;;;14.10;99.90;;;;;;5055368;28;20445;-84
2022/05/26 05:34:07;;;;;;;1.40;0.70;;;;;;;;;;5054590;28;20442;-84
2022/05/26 05:36:36;;;;;;;1.23;0.90;;;14.90;99.90;;;;;;5054601;28;20497;-90
2022/05/26 05:39:04;;;;;;;1.00;0.70;;;15.10;99.90;;;;;;5054970;28;20454;-84
2022/05/26 05:41:34;;;;;;;0.60;0.60;;;15.10;99.90;;;;;;5053972;28;20450;-86
2022/05/26 05:44:01;;;;;;;1.10;0.60;;;;;;;;;;5054689;28;20549;-87
2022/05/26 05:46:34;;;;;;;2.43;0.80;;;;;;;;;;5052403;28;20454;-86
2022/05/26 05:49:02;;;;;;;0.77;0.60;;;16.10;99.90;;;;;;5056502;28;20456;-91
2022/05/26 05:51:32;;;;;;;3.07;0.80;;;16.20;99.90;;;;;;5054908;28;20462;-92
2022/05/26 05:53:59;;;;;;;1.37;0.57;;;;;;;;;;5055239;28;20443;-90
2022/05/26 05:56:26;;;;;;;0.60;0.60;;;;;;;;;;5052771;28;20498;-86
2022/05/26 05:58:53;;;;;;;1.07;0.73;;;;;;;;;;5054476;28;20455;-92
2022/05/26 06:01:21;;;;;;;3.17;1.13;;;;;;;;;;5052693;28;20459;-88
2022/05/26 06:03:48;;;;;;;0.70;0.50;;;;;;;;;;5052481;28;20507;-90
2022/05/26 06:06:16;;;;;;;1.73;0.50;;;;;;;;;;5054628;28;20454;-91
2022/05/26 06:08:44;;;;;;;1.50;0.63;;;15.10;99.90;;;;;;5055060;28;20449;-92
2022/05/26 06:11:11;;;;;;;2.70;0.77;;;;;;;;;;5053400;28;20812;-85
2022/05/26 06:13:38;;;;;;;1.17;0.60;;;;;;;;;;5054323;28;20469;-85
2022/05/26 06:16:07;;;;;;;1.83;1.07;;;14.90;99.90;;;;;;5053686;28;20997;-93
2022/05/26 06:18:35;;;;;;;1.90;0.80;;;14.80;99.90;;;;;;5053783;28;20447;-85
2022/05/26 06:21:03;;;;;;;2.63;0.97;;;14.70;99.90;;;;;;5055321;28;21046;-87
2022/05/26 06:23:30;;;;;;;1.30;0.70;;;;;;;;;;5053869;28;20446;-89
2022/05/26 06:25:59;;;;;;;3.90;0.80;;;14.70;99.90;;;;;;5052557;28;20803;-85
2022/05/26 06:31:11;;;;;;;2.37;0.90;;;14.60;99.90;;;;;;5053476;28;20800;-89
2022/05/26 06:39:13;;;;;;;4.30;0.80;;;;;;;;;;5042752;28;20953;-86
2022/05/26 06:44:26;;;;;;;0.77;0.63;;;;;;;;;;5053263;28;20496;-86
2022/05/26 06:46:53;;;;;;;3.73;0.70;;;;;;;;;;5053460;28;20477;-86
2022/05/26 06:49:21;;;;;;;1.53;0.70;;;15.00;99.90;;;;;;5053408;28;20461;-90
2022/05/26 06:51:48;;;;;;;6.00;0.90;;;;;;;;;;5054382;28;20459;-84
2022/05/26 06:54:15;;;;;;;0.93;0.80;;;;;;;;;;5053121;28;20865;-90
2022/05/26 06:56:43;;;;;;;4.20;0.87;;;15.10;99.90;;;;;;5052262;28;20516;-87
2022/05/26 06:59:10;;;;;;;1.70;0.80;;;;;;;;;;5053104;28;20457;-85
2022/05/26 07:01:37;;;;;;;1.73;0.77;;;;;;;;;;5053099;28;20447;-87
2022/05/26 07:04:04;;;;;;;1.17;0.80;;;;;;;;;;5053292;28;20443;-86
2022/05/26 07:06:31;;;;;;;2.63;1.00;;;;;;;;;;5053531;28;20459;-88
2022/05/26 07:08:58;;;;;;;4.30;0.53;;;;;;;;;;5054240;28;20454;-85
2022/05/26 07:11:26;;;;;;;1.43;0.70;;;;;;;;;;5052560;28;20482;-85
2022/05/26 07:13:54;;;;;;;2.10;0.60;;;15.90;99.90;;;;;;5054647;28;20451;-88
2022/05/26 07:16:21;;;;;;;0.83;0.50;;;;;;;;;;5054817;28;20580;-91
2022/05/26 07:18:50;;;;;;;0.80;0.60;;;;;;;;;;5054153;28;20457;-84
2022/05/26 07:21:18;;;;;;;0.70;0.57;;;;;;;;;;5053303;28;20458;-88
2022/05/26 07:23:45;;;;;;;1.27;0.77;;;;;;;;;;5053221;28;20931;-93
2022/05/26 07:26:14;;;;;;;0.60;0.50;;;16.10;99.90;;;;;;5051984;28;20457;-84
2022/05/26 07:28:41;;;;;;;0.77;0.77;;;16.20;99.90;;;;;;5053991;28;20462;-88
2022/05/26 07:31:11;;;;;;;1.57;0.80;;;16.20;99.90;;;;;;5053414;28;20461;-84
2022/05/26 07:33:38;;;;;;;1.17;0.77;;;;;;;;;;5053443;28;20807;-85
2022/05/26 07:36:08;;;;;;;2.67;0.93;;;16.40;99.90;;;;;;5053272;28;20496;-89
2022/05/26 07:41:23;;;;;;;4.07;0.73;;;16.70;99.90;;;;;;5052041;28;20437;-84
2022/05/26 07:43:54;;;;;;;1.97;0.80;;;16.80;99.90;;;;;;5053218;28;20462;-85
2022/05/26 07:46:23;;;;;;;1.23;0.87;;;16.60;98.30;;;;;;5053444;28;20448;-88
2022/05/26 07:48:50;;;;;;;0.73;0.60;;;;;;;;;;5052611;28;20451;-84
2022/05/26 07:51:19;;;;;;;2.10;0.90;;;;;;;;;;5053053;28;20458;-84
2022/05/26 07:53:46;;;;;;;3.60;0.80;;;;;;;;;;5053099;28;20490;-87
2022/05/26 07:56:13;;;;;;;1.23;0.53;;;;;;;;;;5051928;28;20497;-91
2022/05/26 07:58:41;;;;;;;2.00;0.87;;;;;;;;;;5052738;28;20446;-90
2022/05/26 08:01:08;;;;;;;1.73;0.80;;;;;;;;;;5052794;28;20832;-86
2022/05/26 08:03:37;;;;;;;2.17;0.80;;;17.00;98.20;;;;;;5052475;28;20454;-84
2022/05/26 08:06:04;;;;;;;2.33;0.93;;;;;;;;;;5052599;28;20470;-86
2022/05/26 08:08:32;;;;;;;1.10;0.67;;;17.40;97.80;;;;;;5052386;28;20453;-88
2022/05/26 08:10:59;;;;;;;0.90;0.50;;;;;;;;;;5051965;28;20447;-90
2022/05/26 08:13:26;;;;;;;1.77;0.67;;;;;;;;;;5052487;28;20453;-85
2022/05/26 08:15:54;;;;;;;0.93;0.50;;;;;;;;;;5052301;28;20494;-86
2022/05/26 08:18:21;;;;;;;0.80;0.60;;;;;;;;;;5052404;28;20446;-85
2022/05/26 08:20:49;;;;;;;1.10;0.60;;;17.50;99.10;;;;;;5057281;28;20516;-87
2022/05/26 08:23:16;;;;;;;1.10;0.70;;;;;;;;;;5059585;28;20431;-91
2022/05/26 08:25:47;;;;;;;2.23;0.70;;;;;;;;;;5059310;28;20457;-92
2022/05/26 08:28:19;;;;;;;1.60;0.63;;;;;;;;;;5064871;28;20449;-93
2022/05/26 08:30:46;;;;;;;0.73;0.43;;;;;;;;;;5073191;28;20538;-89
2022/05/26 08:33:13;;;;;;;1.93;0.80;;;;;;;;;;5068346;28;20434;-91
2022/05/26 08:35:41;;;;;;;2.00;0.93;;;;;;;;;;5070192;28;20477;-93
2022/05/26 08:38:09;;;;;;;2.60;0.87;;;16.90;97.80;;;;;;5068788;28;20442;-94
2022/05/26 08:40:41;;;;;;;1.80;0.67;;;16.70;98.90;;;;;;5069579;28;20434;-91
2022/05/26 08:43:17;;;;;;;1.63;0.70;;;16.60;99.20;;;;;;5069791;28;20439;-91
2022/05/26 08:45:52;;;;;;;1.23;0.53;;;;;;;;;;5064096;28;20445;-94
2022/05/26 08:48:39;;;;;;;0.60;0.50;;;;;;;;;;5071724;22;20982;-93
2022/05/26 08:51:07;;;;;;;0.40;0.40;;;16.70;98.70;;;;;;5028521;28;20510;-93
2022/05/26 08:53:40;;;;;;;1.87;0.60;;;16.80;99.00;;;;;;5025555;28;20451;-88
2022/05/26 08:56:11;;;;;;;0.80;0.60;;;17.10;98.50;;;;;;5027098;28;20480;-88
2022/05/26 08:58:43;;;;;;;1.50;0.90;;;17.10;99.90;;;;;;5041774;28;20447;-89
2022/05/26 09:01:13;;;;;;;1.00;0.77;;;17.10;99.90;;;;;;5056414;28;20454;-89
2022/05/26 09:03:40;;;;;;;3.70;0.70;;;;;;;;;;5053449;28;20428;-95
2022/05/26 09:06:15;;;;;;;1.10;0.50;;;16.90;99.70;;;;;;5044167;28;20459;-95
2022/05/26 09:14:25;;;;;;;1.80;0.70;;;17.30;98.00;;;;;;5054434;28;20492;-92
2022/05/26 09:16:57;;;;;;;1.27;0.60;;;17.60;98.30;;;;;;5052650;28;20479;-89
2022/05/26 09:19:24;;;;;;;1.20;0.70;;;;;;;;;;5045960;28;20470;-89
2022/05/26 09:21:52;;;;;;;3.43;0.70;;;18.50;96.80;;;;;;5045134;28;20435;-90
2022/05/26 09:24:26;;;;;;;1.40;0.60;;;18.90;97.60;;;;;;5037199;28;20447;-89
2022/05/26 09:26:56;;;;;;;1.70;0.60;;;18.50;96.40;;;;;;5037154;28;20474;-88
2022/05/26 09:29:28;;;;;;;0.60;0.60;;;18.30;94.70;;;;;;5038423;28;20465;-88
2022/05/26 09:31:56;;;;;;;2.13;0.60;;;;;;;;;;5037574;28;20471;-90
2022/05/26 09:34:25;;;;;;;1.57;0.90;;;17.80;98.10;;;;;;5038320;28;20459;-89
2022/05/26 09:36:55;;;;;;;5.30;0.80;;;17.70;99.10;;;;;;5044568;22;21034;-93
2022/05/26 09:39:26;;;;;;;0.63;0.50;;;17.50;98.90;;;;;;5015751;28;20452;-88
2022/05/26 09:41:57;;;;;;;4.30;0.80;;;17.40;97.90;;;;;;5015285;28;20456;-91
2022/05/26 09:44:35;;;;;;;3.07;1.37;;;17.20;98.90;;;;;;5017775;28;20453;-92
2022/05/26 09:47:20;;;;;;;2.33;2.03;;;17.10;98.60;;;;;;5020477;28;20455;-95
2022/05/26 09:49:50;;;;;;;0.63;0.50;;;16.90;99.90;;;;;;5016025;28;20448;-88
2022/05/26 09:52:19;;;;;;;1.97;0.70;;;17.00;99.90;;;;;;5036588;22;20491;-88
2022/05/26 09:54:49;;;;;;;1.97;0.83;;;17.20;99.90;;;;;;5038233;28;20459;-91
2022/05/26 09:57:20;;;;;;;4.47;1.00;;;17.20;99.90;;;;;;5034543;28;20491;-88
2022/05/26 09:59:47;;;;;;;0.90;0.60;;;;;;;;;;5031774;28;20448;-88
2022/05/26 10:02:20;;;;;;;0.80;0.70;;;17.30;99.90;;;;;;5041755;28;20432;-88
2022/05/26 10:04:57;;;;;;;1.87;0.80;;;17.40;99.90;;;;;;5045469;28;20450;-88
2022/05/26 10:07:35;;;;;;;1.80;1.03;;;17.50;99.90;;;;;;5066823;22;20490;-88
2022/05/26 10:10:19;;;;;;;3.83;0.93;;;17.90;99.90;;;;;;5067749;28;20441;-89
2022/05/26 10:12:56;;;;;;;0.67;0.50;;;;;;;;;;5059658;28;20457;-92
2022/05/26 10:15:46;;;;;;;1.50;0.77;;;17.30;99.80;;;;;;5065826;28;20462;-88
2022/05/26 10:18:39;;;;;;;0.83;0.50;;;17.30;98.30;;;;;;5053268;22;20476;-90
2022/05/26 10:21:13;;;;;;;1.50;0.77;;;17.30;99.90;;;;;;5063889;28;20944;-88
2022/05/26 10:24:05;;;;;;;1.87;0.70;;;17.20;97.90;;;;;;5067024;28;20431;-88
2022/05/26 10:26:42;;;;;;;2.90;2.00;;;17.30;98.70;;;;;;5065708;28;20451;-89
2022/05/26 10:29:29;;;;;;;1.37;0.60;;;17.50;98.70;;;;;;5065819;28;20442;-93
2022/05/26 10:32:08;;;;;;;1.20;0.67;;;17.50;98.40;;;;;;5063052;28;20474;-88
2022/05/26 10:34:48;;;;;;;2.00;0.70;;;17.60;99.30;;;;;;5067084;28;20481;-89
2022/05/26 10:37:29;;;;;;;3.20;0.67;;;17.70;99.40;;;;;;5065523;28;20486;-88
2022/05/26 10:39:59;;;;;;;1.20;0.57;;;;;;;;;;5073447;22;20575;-91
2022/05/26 10:45:34;;;;;;;0.97;0.70;;;17.00;99.90;;;;;;5067472;28;20533;-89
2022/05/26 10:48:09;;;;;;;1.37;0.60;;;17.10;99.90;;;;;;5067314;28;20448;-87
2022/05/26 10:50:41;;;;;;;1.70;0.70;;;17.00;99.90;;;;;;5066664;28;20885;-88
2022/05/26 10:53:20;;;;;;;0.60;0.50;;;16.90;99.90;;;;;;5028700;28;20492;-88
2022/05/26 10:58:24;;;;;;;4.07;1.37;;;16.80;99.90;;;;;;5062846;22;20823;-89
2022/05/26 11:01:00;;;;;;;3.20;0.80;;;16.70;99.90;;;;;;5069898;22;20231;-92
2022/05/26 11:03:35;;;;;;;3.70;0.83;;;16.80;99.90;;;;;;5060884;28;20460;-88
2022/05/26 11:06:21;;;;;;;2.87;1.27;;;17.00;99.90;;;;;;5065372;22;20551;-94
2022/05/26 11:08:56;;;;;;;1.23;0.70;;;17.10;99.90;;;;;;5059709;28;20505;-88
2022/05/26 11:11:36;;;;;;;1.03;0.60;;;17.10;99.90;;;;;;5060865;28;20442;-92
2022/05/26 11:14:07;;;;;;;2.80;0.90;;;17.10;99.90;;;;;;5057028;28;20458;-91
2022/05/26 11:19:34;;;;;;;2.00;0.80;;;17.10;99.90;;;;;;5063584;28;20500;-89
2022/05/26 11:22:02;;;;;;;1.03;0.90;;;17.00;99.90;;;;;;5062346;28;20488;-88
2022/05/26 11:24:31;;;;;;;1.17;0.80;;;;;;;;;;5066905;28;20439;-91
2022/05/26 11:27:05;;;;;;;3.73;1.40;;;17.00;99.90;;;;;;5065416;28;20454;-88
2022/05/26 11:29:39;;;;;;;1.20;0.80;;;17.10;99.90;;;;;;5082184;22;20501;-88
2022/05/26 11:38:07;;;;;;;1.73;0.77;;;17.50;99.90;;;;;;5101576;22;20489;-88
2022/05/26 11:40:44;;;;;;;1.10;0.90;;;17.50;99.50;;;;;;5075883;22;20487;-90
2022/05/26 11:43:11;;;;;;;0.70;0.70;;;17.80;99.90;;;;;;5075954;22;20470;-88
2022/05/26 11:45:51;;;;;;;3.73;1.60;;;17.90;99.30;;;;;;5137634;22;20485;-89
2022/05/26 11:48:47;;;;;;;1.77;0.70;;;17.80;98.00;;;;;;5064134;28;20862;-89
2022/05/26 11:51:30;;;;;;;5.93;1.57;;;17.90;99.40;;;;;;5058975;28;20450;-87
2022/05/26 11:53:59;;;;;;;1.20;1.00;;;17.60;99.00;;;;;;5058897;28;20966;-91
2022/05/26 11:56:49;;;;;;;4.60;1.03;;;17.70;99.80;;;;;;5061185;28;20484;-92
2022/05/26 11:59:47;;;;;;;2.60;1.13;;;17.70;97.90;;;;;;5070403;28;20522;-94
2022/05/26 12:02:32;;;;;;;2.40;0.80;;;17.80;99.10;;;;;;5064565;28;20446;-89
2022/05/26 12:05:33;;;;;;;1.30;0.77;;;17.80;99.50;;;;;;5034561;28;20450;-91
2022/05/26 12:08:06;;;;;;;1.33;1.00;;;17.70;99.00;;;;;;5064638;28;20454;-91
2022/05/26 12:10:45;;;;;;;4.20;1.10;;;;;;;;;;5068926;28;20522;-95
2022/05/26 12:16:37;;;;;;;1.50;0.90;;;17.30;99.80;;;;;;5070401;28;20450;-89
2022/05/26 12:19:10;;;;;;;3.27;1.33;;;17.40;99.90;;;;;;5076368;22;20560;-91
2022/05/26 12:21:55;;;;;;;0.90;0.80;;;17.40;99.90;;;;;;5067142;28;20443;-87
2022/05/26 12:24:59;;;;;;;1.83;0.80;;;17.30;99.80;;;;;;5064600;28;20454;-91
2022/05/26 12:28:09;;;;;;;0.83;0.80;;;17.30;99.90;;;;;;5064674;28;20515;-92
2022/05/26 12:31:14;;;;;;;4.27;0.90;;;17.50;99.90;;;;;;5070501;28;20466;-87
2022/05/26 12:34:20;;;;;;;1.43;0.87;;;17.90;99.90;;;;;;5069198;28;20543;-87
2022/05/26 12:37:03;;;;;;;2.90;0.90;;;18.40;99.80;;;;;;5072104;22;20478;-88
2022/05/26 12:42:41;;;;;;;2.50;0.87;;;18.60;97.80;;;;;;5074688;22;20569;-91
2022/05/26 12:45:29;;;;;;;1.83;0.90;;;;;;;;;;5083315;22;20481;-88
2022/05/26 12:48:41;;;;;;;2.20;0.80;;;19.30;99.00;;;;;;5088637;28;20454;-89
2022/05/26 12:51:33;;;;;;;4.70;1.30;;;19.50;97.30;;;;;;5084088;28;20448;-94
2022/05/26 12:54:02;;;;;;;2.20;1.17;;;19.50;95.80;;;;;;5085213;28;20454;-89
2022/05/26 12:57:09;;;;;;;0.73;0.70;;;19.40;95.90;;;;;;5051388;28;20453;-92
2022/05/26 12:59:43;;;;;;;2.60;0.70;;;;;;;;;;5086311;28;20499;-88
2022/05/26 13:02:16;;;;;;;1.27;0.80;;;19.50;94.50;;;;;;5104157;22;20485;-87
2022/05/26 13:04:48;;;;;;;2.60;0.90;;;19.00;95.70;;;;;;5086210;28;20461;-90
2022/05/26 13:07:40;;;;;;;1.00;0.80;;;18.70;96.00;;;;;;5086126;28;20442;-94
2022/05/26 13:10:13;;;;;;;1.70;1.23;;;18.80;96.50;;;;;;5086091;28;20956;-88
2022/05/26 13:12:49;;;;;;;1.67;1.07;;;;;;;;;;5084265;28;20453;-92
2022/05/26 13:15:53;;;;;;;1.53;0.70;;;18.60;95.40;;;;;;5087265;28;20453;-94
2022/05/26 13:18:39;;;;;;;2.23;0.93;;;18.20;97.70;;;;;;5079282;28;21014;-88
2022/05/26 13:21:16;;;;;;;3.00;0.90;;;18.30;97.00;;;;;;5084077;28;20952;-87
2022/05/26 13:23:44;;;;;;;1.20;0.70;;;18.50;97.80;;;;;;5084090;28;20503;-87
2022/05/26 13:26:13;;;;;;;2.73;1.00;;;18.50;98.30;;;;;;5080746;28;20807;-86
2022/05/26 13:28:41;;;;;;;1.17;0.80;;;;;;;;;;5078037;28;20980;-93
2022/05/26 13:33:57;;;;;;;1.73;1.10;;;;;;;;;;5075889;28;20503;-88
2022/05/26 13:36:31;;;;;;;3.03;1.00;;;18.20;97.60;;;;;;5075830;28;20446;-87
2022/05/26 13:39:06;;;;;;;1.53;0.80;;;18.10;97.90;;;;;;5080611;28;20453;-87
2022/05/26 13:41:34;;;;;;;4.10;1.20;;;18.10;97.90;;;;;;5076570;28;20449;-88
2022/05/26 13:44:05;;;;;;;1.47;0.90;;;18.20;98.10;;;;;;5075545;28;20442;-88
2022/05/26 13:46:33;;;;;;;1.67;0.83;;;18.30;98.70;;;;;;5076580;28;20442;-87
2022/05/26 13:49:01;;;;;;;1.87;0.93;;;18.50;99.90;;;;;;5075491;28;20810;-89
2022/05/26 13:51:38;;;;;;;1.93;1.20;;;18.70;98.00;;;;;;5078083;28;20452;-88
2022/05/26 13:54:32;;;;;;;2.77;0.90;;;18.70;98.10;;;;;;5078221;28;20446;-87
2022/05/26 13:57:01;;;;;;;3.53;1.00;;;18.80;99.60;;;;;;5070678;28;20481;-87
2022/05/26 13:59:29;;;;;;;0.80;0.80;;;;;;;;;;5071933;28;20536;-87
2022/05/26 14:02:05;;;;;;;1.83;1.00;;;18.80;99.10;;;;;;5076038;28;20478;-87
2022/05/26 14:04:37;;;;;;;1.00;0.80;;;18.90;98.50;;;;;;5076380;28;20949;-91
2022/05/26 14:07:25;;;;;;;2.00;1.03;;;18.70;98.60;;;;;;5084298;28;20503;-88
2022/05/26 14:10:05;;;;;;;1.83;0.90;;;18.90;99.20;;;;;;5081089;28;20888;-89
2022/05/26 14:12:32;;;;;;;1.50;1.00;;;;;;;;;;5083358;28;20437;-87
2022/05/26 14:14:59;;;;;;;1.30;1.00;;;;;;;;;;5081192;28;20449;-87
2022/05/26 14:17:31;;;;;;;1.50;0.87;;;18.90;97.60;;;;;;5075965;28;20489;-89
2022/05/26 14:20:00;;;;;;;2.33;1.00;;;19.00;96.90;;;;;;5077800;28;20444;-88
2022/05/26 14:22:30;;;;;;;1.50;1.00;;;18.70;97.30;;;;;;5079342;28;20441;-90
2022/05/26 14:25:03;;;;;;;2.90;1.10;;;18.70;97.30;;;;;;5075507;28;20935;-92
2022/05/26 14:27:49;;;;;;;1.27;0.97;;;18.70;96.90;;;;;;5082931;28;20468;-91
2022/05/26 14:30:41;;;;;;;0.80;0.77;;;18.50;96.20;;;;;;5077955;28;20894;-90
2022/05/26 14:33:19;;;;;;;1.00;0.73;;;18.50;98.60;;;;;;5077512;28;20450;-87
2022/05/26 14:35:47;;;;;;;1.43;1.13;;;;;;;;;;5075821;28;20446;-93
2022/05/26 14:38:14;;;;;;;1.50;1.10;;;;;;;;;;5076075;28;21008;-92
2022/05/26 14:40:42;;;;;;;1.97;1.10;;;;;;;;;;5074050;28;20453;-90
2022/05/26 14:43:17;;;;;;;1.83;1.10;;;19.40;95.80;;;;;;5080432;28;20963;-95
2022/05/26 14:48:26;;;;;;;3.47;1.00;;;;;;;;;;5020626;28;20483;-93
2022/05/26 14:50:53;;;;;;;1.40;1.03;;;;;;;;;;5070563;22;20544;-90